sensor_id;sensor_type;location;lat;lon;timestamp;pressure;altitude;pressure_sealevel;temperature;humidity
76998;BME280;65930;48.874;10.734;2022-12-10T00:01:10;94717.25;;;0.59;76.93
76998;BME280;65930;48.874;10.734;2022-12-10T00:03:36;94707.97;;;0.63;75.59
76998;BME280;65930;48.874;10.734;2022-12-10T00:06:04;94703.25;;;0.60;76.18
76998;BME280;65930;48.874;10.734;2022-12-10T00:08:30;94713.69;;;0.55;75.53
76998;BME280;65930;48.874;10.734;2022-12-10T00:10:56;94702.00;;;0.54;75.65
76998;BME280;65930;48.874;10.734;2022-12-10T00:13:22;94698.84;;;0.52;76.68
76998;BME280;65930;48.874;10.734;2022-12-10T00:15:47;94696.56;;;0.54;76.08
76998;BME280;65930;48.874;10.734;2022-12-10T00:18:13;94693.63;;;0.40;76.88
76998;BME280;65930;48.874;10.734;2022-12-10T00:20:38;94699.41;;;0.35;77.44
76998;BME280;65930;48.874;10.734;2022-12-10T00:23:04;94697.81;;;0.34;77.61
76998;BME280;65930;48.874;10.734;2022-12-10T00:25:31;94703.72;;;0.36;77.53
76998;BME280;65930;48.874;10.734;2022-12-10T00:27:57;94699.44;;;0.38;77.22
76998;BME280;65930;48.874;10.734;2022-12-10T00:30:23;94701.03;;;0.39;77.20
76998;BME280;65930;48.874;10.734;2022-12-10T00:32:48;94714.22;;;0.37;77.18
76998;BME280;65930;48.874;10.734;2022-12-10T00:35:14;94702.88;;;0.32;77.25
76998;BME280;65930;48.874;10.734;2022-12-10T00:37:39;94713.84;;;0.39;77.21
76998;BME280;65930;48.874;10.734;2022-12-10T00:40:05;94707.69;;;0.42;76.33
76998;BME280;65930;48.874;10.734;2022-12-10T00:42:31;94697.94;;;0.41;76.04
76998;BME280;65930;48.874;10.734;2022-12-10T00:44:56;94696.84;;;0.46;76.16
76998;BME280;65930;48.874;10.734;2022-12-10T00:47:22;94694.16;;;0.49;77.01
76998;BME280;65930;48.874;10.734;2022-12-10T00:49:47;94696.19;;;0.56;76.39
76998;BME280;65930;48.874;10.734;2022-12-10T00:52:13;94690.41;;;0.61;76.30
76998;BME280;65930;48.874;10.734;2022-12-10T00:54:38;94690.31;;;0.54;75.71
76998;BME280;65930;48.874;10.734;2022-12-10T00:57:04;94697.03;;;0.33;75.85
76998;BME280;65930;48.874;10.734;2022-12-10T00:59:29;94701.69;;;0.33;76.25
76998;BME280;65930;48.874;10.734;2022-12-10T01:01:55;94705.69;;;0.39;76.38
76998;BME280;65930;48.874;10.734;2022-12-10T01:04:20;94715.44;;;0.40;76.15
76998;BME280;65930;48.874;10.734;2022-12-10T01:06:51;94723.59;;;0.40;76.24
76998;BME280;65930;48.874;10.734;2022-12-10T01:09:24;94726.63;;;0.35;76.38
76998;BME280;65930;48.874;10.734;2022-12-10T01:11:51;94727.47;;;0.39;75.64
76998;BME280;65930;48.874;10.734;2022-12-10T01:14:29;94737.38;;;0.24;76.06
76998;BME280;65930;48.874;10.734;2022-12-10T01:16:57;94734.72;;;0.28;76.62
76998;BME280;65930;48.874;10.734;2022-12-10T01:19:24;94736.88;;;0.19;75.76
76998;BME280;65930;48.874;10.734;2022-12-10T01:21:53;94745.13;;;0.22;76.06
76998;BME280;65930;48.874;10.734;2022-12-10T01:24:21;94744.13;;;0.34;77.09
76998;BME280;65930;48.874;10.734;2022-12-10T01:26:47;94749.97;;;0.32;75.69
76998;BME280;65930;48.874;10.734;2022-12-10T01:29:12;94752.72;;;0.36;76.41
76998;BME280;65930;48.874;10.734;2022-12-10T01:31:38;94756.28;;;0.40;76.48
76998;BME280;65930;48.874;10.734;2022-12-10T01:34:05;94752.34;;;0.37;76.20
76998;BME280;65930;48.874;10.734;2022-12-10T01:36:37;94750.81;;;0.36;76.02
76998;BME280;65930;48.874;10.734;2022-12-10T01:39:09;94765.97;;;0.37;75.69
76998;BME280;65930;48.874;10.734;2022-12-10T01:41:51;94764.03;;;0.38;75.75
76998;BME280;65930;48.874;10.734;2022-12-10T01:46:45;94761.94;;;0.54;75.56
76998;BME280;65930;48.874;10.734;2022-12-10T01:49:15;94758.13;;;0.59;75.70
76998;BME280;65930;48.874;10.734;2022-12-10T01:51:43;94758.78;;;0.52;75.86
76998;BME280;65930;48.874;10.734;2022-12-10T01:54:15;94761.50;;;0.52;76.19
76998;BME280;65930;48.874;10.734;2022-12-10T01:56:45;94762.31;;;0.53;76.21
76998;BME280;65930;48.874;10.734;2022-12-10T01:59:12;94754.16;;;0.56;76.79
76998;BME280;65930;48.874;10.734;2022-12-10T02:13:03;94743.09;;;0.42;77.11
76998;BME280;65930;48.874;10.734;2022-12-10T02:15:35;94747.28;;;0.36;76.07
76998;BME280;65930;48.874;10.734;2022-12-10T02:18:31;94753.72;;;0.24;77.09
76998;BME280;65930;48.874;10.734;2022-12-10T02:21:03;94753.34;;;0.26;76.73
76998;BME280;65930;48.874;10.734;2022-12-10T02:23:37;94741.09;;;0.39;76.97
76998;BME280;65930;48.874;10.734;2022-12-10T02:26:43;94747.66;;;0.34;77.02
76998;BME280;65930;48.874;10.734;2022-12-10T02:29:32;94749.88;;;0.29;77.82
76998;BME280;65930;48.874;10.734;2022-12-10T02:32:07;94750.50;;;0.19;77.70
76998;BME280;65930;48.874;10.734;2022-12-10T02:34:42;94744.03;;;0.27;77.45
76998;BME280;65930;48.874;10.734;2022-12-10T02:37:23;94744.34;;;0.22;77.62
76998;BME280;65930;48.874;10.734;2022-12-10T02:39:54;94738.06;;;0.18;77.75
76998;BME280;65930;48.874;10.734;2022-12-10T02:42:25;94739.53;;;0.12;77.90
76998;BME280;65930;48.874;10.734;2022-12-10T02:44:53;94743.13;;;0.19;77.71
76998;BME280;65930;48.874;10.734;2022-12-10T02:47:22;94738.91;;;0.22;78.05
76998;BME280;65930;48.874;10.734;2022-12-10T02:49:51;94739.25;;;0.20;77.95
76998;BME280;65930;48.874;10.734;2022-12-10T02:52:19;94729.41;;;0.12;77.46
76998;BME280;65930;48.874;10.734;2022-12-10T02:54:47;94730.31;;;0.20;77.36
76998;BME280;65930;48.874;10.734;2022-12-10T03:00:12;94735.75;;;0.20;77.74
76998;BME280;65930;48.874;10.734;2022-12-10T03:03:10;94722.66;;;0.29;78.14
76998;BME280;65930;48.874;10.734;2022-12-10T03:08:22;94723.44;;;0.29;77.77
76998;BME280;65930;48.874;10.734;2022-12-10T03:10:59;94727.44;;;0.35;77.58
76998;BME280;65930;48.874;10.734;2022-12-10T03:13:37;94726.59;;;0.31;77.71
76998;BME280;65930;48.874;10.734;2022-12-10T03:16:04;94723.03;;;0.27;77.15
76998;BME280;65930;48.874;10.734;2022-12-10T03:18:32;94732.00;;;0.28;77.11
76998;BME280;65930;48.874;10.734;2022-12-10T03:21:04;94724.19;;;0.26;77.17
76998;BME280;65930;48.874;10.734;2022-12-10T03:23:33;94719.88;;;0.25;77.73
76998;BME280;65930;48.874;10.734;2022-12-10T03:26:01;94723.41;;;0.26;77.52
76998;BME280;65930;48.874;10.734;2022-12-10T03:28:32;94735.38;;;0.21;76.88
76998;BME280;65930;48.874;10.734;2022-12-10T03:31:02;94728.84;;;0.26;77.39
76998;BME280;65930;48.874;10.734;2022-12-10T03:33:28;94733.16;;;0.27;77.54
76998;BME280;65930;48.874;10.734;2022-12-10T03:35:55;94726.22;;;0.33;77.19
76998;BME280;65930;48.874;10.734;2022-12-10T03:38:20;94721.88;;;0.28;77.40
76998;BME280;65930;48.874;10.734;2022-12-10T03:40:46;94724.22;;;0.30;76.89
76998;BME280;65930;48.874;10.734;2022-12-10T03:43:13;94736.69;;;0.31;77.39
76998;BME280;65930;48.874;10.734;2022-12-10T03:45:40;94736.38;;;0.36;77.20
76998;BME280;65930;48.874;10.734;2022-12-10T03:48:06;94738.72;;;0.37;77.24
76998;BME280;65930;48.874;10.734;2022-12-10T03:50:31;94731.03;;;0.43;76.83
76998;BME280;65930;48.874;10.734;2022-12-10T03:52:57;94731.09;;;0.47;76.71
76998;BME280;65930;48.874;10.734;2022-12-10T03:55:22;94725.22;;;0.44;76.86
76998;BME280;65930;48.874;10.734;2022-12-10T03:57:48;94730.50;;;0.34;76.72
76998;BME280;65930;48.874;10.734;2022-12-10T04:00:14;94742.94;;;0.31;77.11
76998;BME280;65930;48.874;10.734;2022-12-10T04:02:39;94740.56;;;0.30;77.58
76998;BME280;65930;48.874;10.734;2022-12-10T04:05:06;94741.38;;;0.30;77.61
76998;BME280;65930;48.874;10.734;2022-12-10T04:07:33;94744.56;;;0.36;77.68
76998;BME280;65930;48.874;10.734;2022-12-10T04:09:59;94739.19;;;0.43;77.12
76998;BME280;65930;48.874;10.734;2022-12-10T04:12:24;94741.63;;;0.48;77.03
76998;BME280;65930;48.874;10.734;2022-12-10T04:14:50;94726.84;;;0.49;76.60
76998;BME280;65930;48.874;10.734;2022-12-10T04:17:34;94726.00;;;0.45;76.63
76998;BME280;65930;48.874;10.734;2022-12-10T04:19:59;94730.50;;;0.34;77.28
76998;BME280;65930;48.874;10.734;2022-12-10T04:22:25;94727.25;;;0.25;77.13
76998;BME280;65930;48.874;10.734;2022-12-10T04:25:11;94729.47;;;0.16;77.84
76998;BME280;65930;48.874;10.734;2022-12-10T04:27:56;94727.00;;;0.07;78.65
76998;BME280;65930;48.874;10.734;2022-12-10T04:30:22;94739.53;;;0.12;78.27
76998;BME280;65930;48.874;10.734;2022-12-10T04:32:48;94749.63;;;0.11;77.78
76998;BME280;65930;48.874;10.734;2022-12-10T04:35:13;94757.44;;;0.13;78.14
76998;BME280;65930;48.874;10.734;2022-12-10T04:37:39;94758.09;;;0.06;78.72
76998;BME280;65930;48.874;10.734;2022-12-10T04:40:06;94758.94;;;0.10;77.89
76998;BME280;65930;48.874;10.734;2022-12-10T04:42:32;94746.16;;;0.14;77.74
76998;BME280;65930;48.874;10.734;2022-12-10T04:44:57;94746.53;;;0.13;78.13
76998;BME280;65930;48.874;10.734;2022-12-10T04:47:23;94744.97;;;0.12;78.06
76998;BME280;65930;48.874;10.734;2022-12-10T04:49:49;94741.19;;;0.20;78.07
76998;BME280;65930;48.874;10.734;2022-12-10T04:52:15;94740.88;;;0.25;77.47
76998;BME280;65930;48.874;10.734;2022-12-10T04:54:42;94741.31;;;0.27;76.79
76998;BME280;65930;48.874;10.734;2022-12-10T04:57:09;94746.03;;;0.30;77.65
76998;BME280;65930;48.874;10.734;2022-12-10T04:59:35;94745.72;;;0.35;77.20
76998;BME280;65930;48.874;10.734;2022-12-10T05:02:01;94749.25;;;0.39;77.55
76998;BME280;65930;48.874;10.734;2022-12-10T05:04:27;94738.41;;;0.42;77.00
76998;BME280;65930;48.874;10.734;2022-12-10T05:06:53;94752.81;;;0.43;76.66
76998;BME280;65930;48.874;10.734;2022-12-10T05:09:18;94750.16;;;0.47;76.99
76998;BME280;65930;48.874;10.734;2022-12-10T05:11:44;94754.84;;;0.46;76.60
76998;BME280;65930;48.874;10.734;2022-12-10T05:14:11;94750.94;;;0.47;76.68
76998;BME280;65930;48.874;10.734;2022-12-10T05:16:37;94746.22;;;0.44;76.86
76998;BME280;65930;48.874;10.734;2022-12-10T05:19:03;94761.81;;;0.47;77.54
76998;BME280;65930;48.874;10.734;2022-12-10T05:21:29;94742.00;;;0.47;77.23
76998;BME280;65930;48.874;10.734;2022-12-10T05:24:15;94735.34;;;0.44;77.58
76998;BME280;65930;48.874;10.734;2022-12-10T05:26:41;94736.59;;;0.24;78.03
76998;BME280;65930;48.874;10.734;2022-12-10T05:29:07;94728.63;;;0.12;78.82
76998;BME280;65930;48.874;10.734;2022-12-10T05:31:33;94722.41;;;0.11;79.22
76998;BME280;65930;48.874;10.734;2022-12-10T05:33:59;94722.66;;;0.03;78.56
76998;BME280;65930;48.874;10.734;2022-12-10T05:36:28;94720.25;;;-0.03;79.44
76998;BME280;65930;48.874;10.734;2022-12-10T05:38:55;94724.53;;;-0.02;79.06
76998;BME280;65930;48.874;10.734;2022-12-10T05:41:26;94728.53;;;0.05;78.90
76998;BME280;65930;48.874;10.734;2022-12-10T05:43:57;94726.16;;;0.03;78.23
76998;BME280;65930;48.874;10.734;2022-12-10T05:46:25;94740.13;;;0.02;78.74
76998;BME280;65930;48.874;10.734;2022-12-10T05:48:53;94730.88;;;0.06;78.43
76998;BME280;65930;48.874;10.734;2022-12-10T05:51:21;94725.03;;;0.04;78.41
76998;BME280;65930;48.874;10.734;2022-12-10T05:53:48;94736.13;;;-0.05;78.57
76998;BME280;65930;48.874;10.734;2022-12-10T05:56:18;94741.53;;;-0.08;78.56
76998;BME280;65930;48.874;10.734;2022-12-10T05:58:45;94748.50;;;-0.11;79.42
76998;BME280;65930;48.874;10.734;2022-12-10T06:01:23;94743.16;;;-0.04;79.42
76998;BME280;65930;48.874;10.734;2022-12-10T06:03:50;94756.53;;;0.05;79.24
76998;BME280;65930;48.874;10.734;2022-12-10T06:06:28;94759.41;;;0.16;78.69
76998;BME280;65930;48.874;10.734;2022-12-10T06:08:55;94763.28;;;0.15;78.46
76998;BME280;65930;48.874;10.734;2022-12-10T06:11:20;94761.34;;;0.15;78.44
76998;BME280;65930;48.874;10.734;2022-12-10T06:13:47;94773.66;;;0.06;78.09
76998;BME280;65930;48.874;10.734;2022-12-10T06:16:14;94784.47;;;0.02;79.04
76998;BME280;65930;48.874;10.734;2022-12-10T06:18:40;94771.97;;;-0.03;78.65
76998;BME280;65930;48.874;10.734;2022-12-10T06:21:11;94782.25;;;0.08;78.22
76998;BME280;65930;48.874;10.734;2022-12-10T06:23:39;94777.94;;;0.07;78.56
76998;BME280;65930;48.874;10.734;2022-12-10T06:26:11;94771.84;;;0.13;77.99
76998;BME280;65930;48.874;10.734;2022-12-10T06:28:37;94780.38;;;0.12;78.28
76998;BME280;65930;48.874;10.734;2022-12-10T06:31:03;94783.94;;;0.16;78.28
76998;BME280;65930;48.874;10.734;2022-12-10T06:33:29;94790.22;;;0.20;77.85
76998;BME280;65930;48.874;10.734;2022-12-10T06:35:54;94787.91;;;0.22;77.55
76998;BME280;65930;48.874;10.734;2022-12-10T06:38:20;94790.66;;;0.22;76.97
76998;BME280;65930;48.874;10.734;2022-12-10T06:40:45;94794.94;;;0.23;77.32
76998;BME280;65930;48.874;10.734;2022-12-10T06:43:14;94796.09;;;0.22;77.58
76998;BME280;65930;48.874;10.734;2022-12-10T06:45:41;94788.31;;;0.24;77.08
76998;BME280;65930;48.874;10.734;2022-12-10T06:48:07;94797.13;;;0.14;77.82
76998;BME280;65930;48.874;10.734;2022-12-10T06:50:33;94795.66;;;0.20;77.68
76998;BME280;65930;48.874;10.734;2022-12-10T06:52:59;94800.31;;;0.19;77.33
76998;BME280;65930;48.874;10.734;2022-12-10T06:55:24;94797.19;;;0.17;77.82
76998;BME280;65930;48.874;10.734;2022-12-10T06:57:51;94789.38;;;0.16;78.05
76998;BME280;65930;48.874;10.734;2022-12-10T07:00:17;94783.13;;;0.15;77.88
76998;BME280;65930;48.874;10.734;2022-12-10T07:02:43;94783.94;;;0.16;77.67
76998;BME280;65930;48.874;10.734;2022-12-10T07:05:08;94795.13;;;0.11;77.81
76998;BME280;65930;48.874;10.734;2022-12-10T07:07:35;94786.94;;;0.11;78.32
76998;BME280;65930;48.874;10.734;2022-12-10T07:10:01;94790.09;;;0.13;78.13
76998;BME280;65930;48.874;10.734;2022-12-10T07:12:26;94794.81;;;0.16;77.79
76998;BME280;65930;48.874;10.734;2022-12-10T07:14:52;94797.97;;;0.18;78.17
76998;BME280;65930;48.874;10.734;2022-12-10T07:17:17;94794.34;;;0.10;78.24
76998;BME280;65930;48.874;10.734;2022-12-10T07:19:43;94792.53;;;0.18;78.24
76998;BME280;65930;48.874;10.734;2022-12-10T07:22:09;94795.25;;;0.18;78.34
76998;BME280;65930;48.874;10.734;2022-12-10T07:24:35;94801.94;;;0.24;77.77
76998;BME280;65930;48.874;10.734;2022-12-10T07:27:00;94803.91;;;0.23;78.03
76998;BME280;65930;48.874;10.734;2022-12-10T07:29:29;94807.69;;;0.19;77.52
76998;BME280;65930;48.874;10.734;2022-12-10T07:31:54;94801.84;;;0.17;77.52
76998;BME280;65930;48.874;10.734;2022-12-10T07:34:20;94814.97;;;0.11;78.37
76998;BME280;65930;48.874;10.734;2022-12-10T07:36:46;94817.34;;;0.13;78.00
76998;BME280;65930;48.874;10.734;2022-12-10T07:39:13;94818.03;;;0.10;77.85
76998;BME280;65930;48.874;10.734;2022-12-10T07:41:43;94822.84;;;0.16;78.48
76998;BME280;65930;48.874;10.734;2022-12-10T07:44:12;94811.28;;;0.23;77.61
76998;BME280;65930;48.874;10.734;2022-12-10T07:46:38;94818.28;;;0.24;77.40
76998;BME280;65930;48.874;10.734;2022-12-10T07:49:03;94821.75;;;0.21;77.61
76998;BME280;65930;48.874;10.734;2022-12-10T07:51:29;94814.38;;;0.21;77.34
76998;BME280;65930;48.874;10.734;2022-12-10T07:53:56;94815.31;;;0.10;78.01
76998;BME280;65930;48.874;10.734;2022-12-10T07:56:23;94808.88;;;0.18;77.27
76998;BME280;65930;48.874;10.734;2022-12-10T07:58:50;94808.97;;;0.25;78.22
76998;BME280;65930;48.874;10.734;2022-12-10T08:01:19;94800.16;;;0.09;78.03
76998;BME280;65930;48.874;10.734;2022-12-10T08:03:47;94802.50;;;0.10;77.68
76998;BME280;65930;48.874;10.734;2022-12-10T08:06:19;94807.59;;;0.12;77.94
76998;BME280;65930;48.874;10.734;2022-12-10T08:08:45;94813.22;;;-0.01;77.75
76998;BME280;65930;48.874;10.734;2022-12-10T08:11:14;94814.56;;;0.09;78.22
76998;BME280;65930;48.874;10.734;2022-12-10T08:13:40;94808.78;;;0.14;77.46
76998;BME280;65930;48.874;10.734;2022-12-10T08:16:16;94813.56;;;0.21;77.82
76998;BME280;65930;48.874;10.734;2022-12-10T08:18:43;94813.38;;;0.10;77.06
76998;BME280;65930;48.874;10.734;2022-12-10T08:21:12;94828.03;;;0.02;76.86
76998;BME280;65930;48.874;10.734;2022-12-10T08:23:38;94830.41;;;0.04;77.53
76998;BME280;65930;48.874;10.734;2022-12-10T08:26:06;94832.41;;;0.07;77.20
76998;BME280;65930;48.874;10.734;2022-12-10T08:28:32;94832.94;;;0.16;77.63
76998;BME280;65930;48.874;10.734;2022-12-10T08:30:58;94824.59;;;0.28;76.74
76998;BME280;65930;48.874;10.734;2022-12-10T08:33:24;94825.34;;;0.28;76.68
76998;BME280;65930;48.874;10.734;2022-12-10T08:35:50;94842.94;;;0.31;75.88
76998;BME280;65930;48.874;10.734;2022-12-10T08:38:15;94839.91;;;0.36;76.29
76998;BME280;65930;48.874;10.734;2022-12-10T08:40:41;94842.41;;;0.48;75.31
76998;BME280;65930;48.874;10.734;2022-12-10T08:43:07;94844.13;;;0.33;75.39
76998;BME280;65930;48.874;10.734;2022-12-10T08:45:32;94837.19;;;0.36;76.10
76998;BME280;65930;48.874;10.734;2022-12-10T08:47:59;94837.88;;;0.33;75.55
76998;BME280;65930;48.874;10.734;2022-12-10T08:50:25;94842.97;;;0.34;74.33
76998;BME280;65930;48.874;10.734;2022-12-10T08:52:51;94844.75;;;0.23;75.47
76998;BME280;65930;48.874;10.734;2022-12-10T08:55:16;94859.63;;;0.29;75.66
76998;BME280;65930;48.874;10.734;2022-12-10T08:57:42;94848.78;;;0.33;75.16
76998;BME280;65930;48.874;10.734;2022-12-10T09:00:07;94854.34;;;0.40;74.96
76998;BME280;65930;48.874;10.734;2022-12-10T09:02:33;94851.31;;;0.45;74.34
76998;BME280;65930;48.874;10.734;2022-12-10T09:04:59;94850.19;;;0.46;74.39
76998;BME280;65930;48.874;10.734;2022-12-10T09:07:24;94852.91;;;0.46;74.58
76998;BME280;65930;48.874;10.734;2022-12-10T09:09:50;94860.59;;;0.40;74.74
76998;BME280;65930;48.874;10.734;2022-12-10T09:12:15;94860.31;;;0.23;75.72
76998;BME280;65930;48.874;10.734;2022-12-10T09:14:41;94878.09;;;0.17;76.57
76998;BME280;65930;48.874;10.734;2022-12-10T09:17:07;94872.19;;;0.15;76.05
76998;BME280;65930;48.874;10.734;2022-12-10T09:19:34;94868.47;;;0.23;76.85
76998;BME280;65930;48.874;10.734;2022-12-10T09:21:59;94881.00;;;0.27;76.10
76998;BME280;65930;48.874;10.734;2022-12-10T09:24:25;94873.00;;;0.38;75.58
76998;BME280;65930;48.874;10.734;2022-12-10T09:26:50;94863.69;;;0.39;74.46
76998;BME280;65930;48.874;10.734;2022-12-10T09:29:16;94861.50;;;0.48;74.13
76998;BME280;65930;48.874;10.734;2022-12-10T09:31:41;94860.66;;;0.44;74.73
76998;BME280;65930;48.874;10.734;2022-12-10T09:34:08;94861.38;;;0.41;74.20
76998;BME280;65930;48.874;10.734;2022-12-10T09:36:34;94866.94;;;0.48;75.03
76998;BME280;65930;48.874;10.734;2022-12-10T09:39:00;94865.84;;;0.30;74.47
76998;BME280;65930;48.874;10.734;2022-12-10T09:41:56;94862.72;;;0.28;74.54
76998;BME280;65930;48.874;10.734;2022-12-10T09:47:10;94852.69;;;0.32;74.33
76998;BME280;65930;48.874;10.734;2022-12-10T09:49:49;94849.13;;;0.28;74.79
76998;BME280;65930;48.874;10.734;2022-12-10T09:52:20;94844.97;;;0.37;74.31
76998;BME280;65930;48.874;10.734;2022-12-10T09:55:03;94859.00;;;0.39;74.32
76998;BME280;65930;48.874;10.734;2022-12-10T09:57:36;94854.88;;;0.49;74.51
76998;BME280;65930;48.874;10.734;2022-12-10T10:00:37;94860.78;;;0.51;74.21
76998;BME280;65930;48.874;10.734;2022-12-10T10:03:01;94854.84;;;0.46;74.46
76998;BME280;65930;48.874;10.734;2022-12-10T10:05:31;94865.25;;;0.40;74.94
76998;BME280;65930;48.874;10.734;2022-12-10T10:08:04;94859.06;;;0.43;75.19
76998;BME280;65930;48.874;10.734;2022-12-10T10:10:33;94856.34;;;0.43;75.25
76998;BME280;65930;48.874;10.734;2022-12-10T10:15:40;94847.88;;;0.48;74.88
76998;BME280;65930;48.874;10.734;2022-12-10T10:20:41;94840.91;;;0.51;74.98
76998;BME280;65930;48.874;10.734;2022-12-10T10:23:12;94844.56;;;0.62;74.95
76998;BME280;65930;48.874;10.734;2022-12-10T10:25:39;94850.28;;;0.53;74.47
76998;BME280;65930;48.874;10.734;2022-12-10T10:28:04;94851.72;;;0.47;75.31
76998;BME280;65930;48.874;10.734;2022-12-10T10:30:30;94855.94;;;0.18;75.37
76998;BME280;65930;48.874;10.734;2022-12-10T10:32:57;94854.72;;;0.16;76.55
76998;BME280;65930;48.874;10.734;2022-12-10T10:35:29;94858.66;;;0.18;76.10
76998;BME280;65930;48.874;10.734;2022-12-10T10:38:02;94858.66;;;0.18;76.16
76998;BME280;65930;48.874;10.734;2022-12-10T10:40:38;94858.19;;;0.35;76.24
76998;BME280;65930;48.874;10.734;2022-12-10T10:43:08;94864.72;;;0.31;75.63
76998;BME280;65930;48.874;10.734;2022-12-10T10:45:42;94853.28;;;0.22;75.93
76998;BME280;65930;48.874;10.734;2022-12-10T10:48:19;94879.91;;;0.32;75.56
76998;BME280;65930;48.874;10.734;2022-12-10T10:50:52;94866.97;;;0.52;75.32
76998;BME280;65930;48.874;10.734;2022-12-10T10:56:26;94865.78;;;0.49;74.92
76998;BME280;65930;48.874;10.734;2022-12-10T11:01:26;94851.44;;;0.52;74.47
76998;BME280;65930;48.874;10.734;2022-12-10T11:03:58;94846.81;;;0.56;74.64
76998;BME280;65930;48.874;10.734;2022-12-10T11:06:28;94854.34;;;0.40;74.87
76998;BME280;65930;48.874;10.734;2022-12-10T11:08:58;94857.91;;;0.44;75.88
76998;BME280;65930;48.874;10.734;2022-12-10T11:11:43;94846.81;;;0.56;75.78
76998;BME280;65930;48.874;10.734;2022-12-10T11:14:29;94853.97;;;0.64;75.16
76998;BME280;65930;48.874;10.734;2022-12-10T11:19:42;94858.19;;;0.62;75.29
76998;BME280;65930;48.874;10.734;2022-12-10T11:22:30;94855.25;;;0.48;75.16
76998;BME280;65930;48.874;10.734;2022-12-10T11:24:56;94848.91;;;0.40;75.59
76998;BME280;65930;48.874;10.734;2022-12-10T11:27:48;94852.16;;;0.49;75.55
76998;BME280;65930;48.874;10.734;2022-12-10T11:30:25;94851.19;;;0.38;75.51
76998;BME280;65930;48.874;10.734;2022-12-10T11:33:25;94854.78;;;0.42;75.12
76998;BME280;65930;48.874;10.734;2022-12-10T11:39:20;94852.25;;;0.56;74.88
76998;BME280;65930;48.874;10.734;2022-12-10T11:47:30;94867.53;;;0.38;74.83
76998;BME280;65930;48.874;10.734;2022-12-10T11:55:54;94853.56;;;0.39;73.35
76998;BME280;65930;48.874;10.734;2022-12-10T11:59:16;94847.16;;;0.51;73.85
76998;BME280;65930;48.874;10.734;2022-12-10T12:04:44;94849.25;;;0.38;73.55
76998;BME280;65930;48.874;10.734;2022-12-10T12:13:05;94843.34;;;0.33;72.65
76998;BME280;65930;48.874;10.734;2022-12-10T12:15:44;94852.84;;;0.20;73.50
76998;BME280;65930;48.874;10.734;2022-12-10T12:18:56;94860.00;;;0.28;72.67
76998;BME280;65930;48.874;10.734;2022-12-10T12:21:23;94854.59;;;0.31;72.88
76998;BME280;65930;48.874;10.734;2022-12-10T12:26:37;94861.38;;;0.41;73.33
76998;BME280;65930;48.874;10.734;2022-12-10T12:29:28;94865.25;;;0.40;72.89
76998;BME280;65930;48.874;10.734;2022-12-10T12:32:17;94876.25;;;0.47;73.02
76998;BME280;65930;48.874;10.734;2022-12-10T12:35:01;94873.13;;;0.45;72.66
76998;BME280;65930;48.874;10.734;2022-12-10T12:38:11;94884.69;;;0.38;73.09
76998;BME280;65930;48.874;10.734;2022-12-10T12:40:35;94883.88;;;0.38;72.61
76998;BME280;65930;48.874;10.734;2022-12-10T12:43:24;94887.34;;;0.35;72.57
76998;BME280;65930;48.874;10.734;2022-12-10T12:45:54;94881.41;;;0.29;72.55
76998;BME280;65930;48.874;10.734;2022-12-10T12:48:29;94890.06;;;0.35;72.87
76998;BME280;65930;48.874;10.734;2022-12-10T12:51:03;94891.50;;;0.29;71.30
76998;BME280;65930;48.874;10.734;2022-12-10T12:53:30;94907.44;;;0.27;72.60
76998;BME280;65930;48.874;10.734;2022-12-10T12:59:18;94905.28;;;0.36;72.26
76998;BME280;65930;48.874;10.734;2022-12-10T13:01:56;94910.28;;;0.34;71.80
76998;BME280;65930;48.874;10.734;2022-12-10T13:04:24;94916.88;;;0.33;71.54
76998;BME280;65930;48.874;10.734;2022-12-10T13:07:27;94923.66;;;0.42;71.71
76998;BME280;65930;48.874;10.734;2022-12-10T13:12:44;94919.75;;;0.40;69.94
76998;BME280;65930;48.874;10.734;2022-12-10T13:20:44;94915.63;;;0.27;71.78
76998;BME280;65930;48.874;10.734;2022-12-10T13:31:19;94924.09;;;0.22;72.13
76998;BME280;65930;48.874;10.734;2022-12-10T13:41:34;94938.41;;;0.19;72.56
76998;BME280;65930;48.874;10.734;2022-12-10T13:44:48;94941.56;;;0.21;72.04
76998;BME280;65930;48.874;10.734;2022-12-10T13:47:48;94938.78;;;0.17;72.88
76998;BME280;65930;48.874;10.734;2022-12-10T14:06:21;94952.41;;;-0.02;76.32
76998;BME280;65930;48.874;10.734;2022-12-10T14:08:55;94970.25;;;-0.05;75.71
76998;BME280;65930;48.874;10.734;2022-12-10T14:11:28;94977.56;;;-0.09;74.33
76998;BME280;65930;48.874;10.734;2022-12-10T14:13:58;94977.16;;;-0.11;74.65
76998;BME280;65930;48.874;10.734;2022-12-10T14:16:29;94980.28;;;-0.09;74.17
76998;BME280;65930;48.874;10.734;2022-12-10T14:19:16;94991.16;;;-0.09;73.69
76998;BME280;65930;48.874;10.734;2022-12-10T14:21:45;94991.97;;;-0.08;75.04
76998;BME280;65930;48.874;10.734;2022-12-10T14:24:28;94997.47;;;-0.05;75.08
76998;BME280;65930;48.874;10.734;2022-12-10T14:27:11;94994.34;;;-0.07;75.01
76998;BME280;65930;48.874;10.734;2022-12-10T14:29:44;95018.75;;;-0.10;74.35
76998;BME280;65930;48.874;10.734;2022-12-10T14:32:25;95009.66;;;-0.18;75.19
76998;BME280;65930;48.874;10.734;2022-12-10T14:34:56;95019.25;;;-0.24;75.45
76998;BME280;65930;48.874;10.734;2022-12-10T14:37:26;95013.09;;;-0.21;74.84
76998;BME280;65930;48.874;10.734;2022-12-10T14:39:54;95017.41;;;-0.20;75.31
76998;BME280;65930;48.874;10.734;2022-12-10T14:42:20;95009.38;;;-0.13;74.81
76998;BME280;65930;48.874;10.734;2022-12-10T14:44:56;95016.66;;;-0.17;74.92
76998;BME280;65930;48.874;10.734;2022-12-10T14:47:22;95011.38;;;-0.10;74.83
76998;BME280;65930;48.874;10.734;2022-12-10T14:49:51;95014.22;;;-0.22;75.15
76998;BME280;65930;48.874;10.734;2022-12-10T14:52:21;95010.59;;;-0.10;75.19
76998;BME280;65930;48.874;10.734;2022-12-10T14:54:48;95012.16;;;-0.09;75.33
76998;BME280;65930;48.874;10.734;2022-12-10T14:57:20;95013.63;;;0.04;75.12
76998;BME280;65930;48.874;10.734;2022-12-10T15:02:26;95022.97;;;-0.13;75.94
76998;BME280;65930;48.874;10.734;2022-12-10T15:04:54;95032.59;;;-0.19;75.70